Time;durP1;ratioP1;P1;durP2;ratioP2;P2;SDS_P1;SDS_P2;PMS_P1;PMS_P2;Temp;Humidity;BMP_temperature;BMP_pressure;BME280_temperature;BME280_humidity;BME280_pressure;Samples;Min_cycle;Max_cycle;Signal;HPM_P1;HPM_P2
2022/01/29 00:00:57;;;;;;;9.40;2.70;;;7.10;99.90;;;;;;4978598;28;20100;-77
2022/01/29 00:03:23;;;;;;;5.82;2.80;;;7.10;99.90;;;;;;4980269;28;20042;-77
2022/01/29 00:05:49;;;;;;;5.75;2.90;;;7.10;99.90;;;;;;4979959;28;20124;-77
2022/01/29 00:08:15;;;;;;;7.45;2.20;;;7.10;99.90;;;;;;4980144;28;20089;-77
2022/01/29 00:10:42;;;;;;;3.78;2.40;;;7.10;99.90;;;;;;4979378;28;20077;-77
2022/01/29 00:13:08;;;;;;;15.65;3.15;;;7.10;99.90;;;;;;4978258;28;20046;-77
2022/01/29 00:15:34;;;;;;;3.45;2.45;;;7.10;99.90;;;;;;4971007;28;20047;-77
2022/01/29 00:17:59;;;;;;;17.85;3.30;;;7.10;99.90;;;;;;4942658;28;20306;-77
2022/01/29 00:20:25;;;;;;;1.77;0.98;;;7.20;99.90;;;;;;4960255;28;20133;-77
2022/01/29 00:22:51;;;;;;;3.88;2.92;;;7.20;99.90;;;;;;4969762;28;20122;-77
2022/01/29 00:25:16;;;;;;;3.10;2.55;;;7.20;99.90;;;;;;4962152;28;20046;-77
2022/01/29 00:27:42;;;;;;;4.40;2.53;;;7.20;99.90;;;;;;4946145;28;20062;-77
2022/01/29 00:30:10;;;;;;;12.00;3.47;;;7.20;99.90;;;;;;4978195;28;20493;-78
2022/01/29 00:32:36;;;;;;;2.17;2.05;;;7.20;99.90;;;;;;4962233;28;20340;-77
2022/01/29 00:35:02;;;;;;;11.68;2.00;;;7.20;99.90;;;;;;4979837;28;20097;-77
2022/01/29 00:37:28;;;;;;;3.85;3.55;;;7.20;99.90;;;;;;4961698;28;20046;-77
2022/01/29 00:39:54;;;;;;;2.88;1.90;;;7.20;99.90;;;;;;4979249;28;20043;-77
2022/01/29 00:42:19;;;;;;;14.43;3.38;;;7.20;99.90;;;;;;4979078;28;20046;-77
2022/01/29 00:44:46;;;;;;;4.43;1.85;;;7.30;99.90;;;;;;4978732;28;20042;-77
2022/01/29 00:47:12;;;;;;;17.70;2.78;;;7.20;99.90;;;;;;4980420;28;20409;-77
2022/01/29 00:49:38;;;;;;;2.83;2.63;;;7.20;99.90;;;;;;4978595;28;20080;-77
2022/01/29 00:52:04;;;;;;;7.20;3.65;;;7.20;99.90;;;;;;4961487;28;20034;-77
2022/01/29 00:54:29;;;;;;;9.45;3.20;;;7.20;99.90;;;;;;4979613;28;20401;-78
2022/01/29 00:56:55;;;;;;;4.40;3.60;;;7.30;99.90;;;;;;4977928;28;20315;-77
2022/01/29 00:59:21;;;;;;;8.75;2.58;;;7.20;99.90;;;;;;4962663;28;20127;-77
2022/01/29 01:01:46;;;;;;;14.13;3.17;;;7.20;99.90;;;;;;4979012;28;20041;-78
2022/01/29 01:04:12;;;;;;;2.45;1.83;;;7.30;99.90;;;;;;4962558;28;20112;-77
2022/01/29 01:06:37;;;;;;;3.65;2.90;;;7.30;99.90;;;;;;4978602;28;20043;-78
2022/01/29 01:09:03;;;;;;;7.10;2.00;;;7.30;99.90;;;;;;4961774;28;20046;-77
2022/01/29 01:11:29;;;;;;;3.40;2.60;;;7.30;99.90;;;;;;4977191;28;20074;-78
2022/01/29 01:13:54;;;;;;;5.18;3.67;;;7.30;99.90;;;;;;4979538;28;20715;-78
2022/01/29 01:16:20;;;;;;;6.88;3.80;;;7.30;99.90;;;;;;4942972;28;20517;-77
2022/01/29 01:18:46;;;;;;;4.65;3.10;;;7.40;99.90;;;;;;4950491;28;20180;-77
2022/01/29 01:21:11;;;;;;;3.50;2.45;;;7.40;99.90;;;;;;4979530;28;20038;-77
2022/01/29 01:23:37;;;;;;;5.70;3.75;;;7.40;99.90;;;;;;4978639;28;20046;-77
2022/01/29 01:26:04;;;;;;;2.55;2.38;;;7.40;99.90;;;;;;4978513;28;20409;-78
2022/01/29 01:28:30;;;;;;;8.60;3.55;;;7.40;99.90;;;;;;4979190;28;20050;-77
2022/01/29 01:30:56;;;;;;;8.32;3.90;;;7.40;99.90;;;;;;4966693;28;20101;-77
2022/01/29 01:33:21;;;;;;;3.80;3.50;;;7.50;99.90;;;;;;4945771;28;20140;-77
2022/01/29 01:35:51;;;;;;;10.10;3.58;;;7.40;99.90;;;;;;4945842;28;20364;-77
2022/01/29 01:38:22;;;;;;;4.15;2.70;;;7.50;99.90;;;;;;4963264;28;20042;-77
2022/01/29 01:40:53;;;;;;;6.95;4.65;;;7.50;99.90;;;;;;4962297;28;20051;-77
2022/01/29 01:43:18;;;;;;;10.18;4.43;;;7.50;99.90;;;;;;4962555;28;20079;-77
2022/01/29 01:45:44;;;;;;;10.75;3.13;;;7.50;99.90;;;;;;4974242;28;20497;-77
2022/01/29 01:48:10;;;;;;;11.27;4.20;;;7.50;99.90;;;;;;4965103;28;20046;-78
2022/01/29 01:50:36;;;;;;;13.70;3.92;;;7.60;99.90;;;;;;4981524;28;20251;-78
2022/01/29 01:53:04;;;;;;;8.38;3.30;;;7.60;99.90;;;;;;4982845;28;20039;-77
2022/01/29 01:55:30;;;;;;;11.13;4.53;;;7.60;99.90;;;;;;4963574;28;20050;-78
2022/01/29 01:57:57;;;;;;;5.22;3.15;;;7.60;99.90;;;;;;4982091;28;20527;-77
2022/01/29 02:00:23;;;;;;;7.10;3.78;;;7.60;99.90;;;;;;4964666;28;20616;-78
2022/01/29 02:02:49;;;;;;;4.43;4.00;;;7.60;99.90;;;;;;4992741;23;20496;-77
2022/01/29 02:05:15;;;;;;;6.50;4.00;;;7.60;99.90;;;;;;4966370;28;20053;-77
2022/01/29 02:07:40;;;;;;;15.55;2.70;;;7.60;99.90;;;;;;4983999;28;20700;-77
2022/01/29 02:10:09;;;;;;;6.38;3.88;;;7.60;99.90;;;;;;4982214;28;20385;-77
2022/01/29 02:12:44;;;;;;;5.22;3.88;;;7.60;99.90;;;;;;4983263;28;20046;-77
2022/01/29 02:15:11;;;;;;;10.80;3.08;;;7.70;99.90;;;;;;4965276;28;20042;-77
2022/01/29 02:17:37;;;;;;;3.33;2.58;;;7.70;99.90;;;;;;4964152;28;20050;-77
2022/01/29 02:20:04;;;;;;;6.22;2.58;;;7.70;99.90;;;;;;4983473;28;20500;-78
2022/01/29 02:22:29;;;;;;;5.88;3.25;;;7.70;99.90;;;;;;4965447;28;20046;-77
2022/01/29 02:24:55;;;;;;;5.85;3.63;;;7.70;99.90;;;;;;4983144;28;20118;-77
2022/01/29 02:27:20;;;;;;;3.10;2.67;;;7.60;99.90;;;;;;4964601;28;20042;-77
2022/01/29 02:29:48;;;;;;;13.38;3.22;;;7.70;99.90;;;;;;4980495;28;20423;-77
2022/01/29 02:32:14;;;;;;;6.40;4.82;;;7.70;99.90;;;;;;4983714;28;20046;-77
2022/01/29 02:34:40;;;;;;;5.90;3.65;;;7.70;99.90;;;;;;4965497;28;20735;-78
2022/01/29 02:37:06;;;;;;;20.42;5.20;;;7.70;99.90;;;;;;4965614;28;20054;-78
2022/01/29 02:39:31;;;;;;;19.00;4.03;;;7.70;99.90;;;;;;4982809;28;20112;-77
2022/01/29 02:41:58;;;;;;;4.10;2.92;;;7.70;99.90;;;;;;4963944;28;20264;-77
2022/01/29 02:44:23;;;;;;;16.55;4.10;;;7.70;99.90;;;;;;4981860;28;20221;-77
2022/01/29 02:46:52;;;;;;;7.50;3.90;;;7.70;99.90;;;;;;4964271;28;20626;-77
2022/01/29 02:49:21;;;;;;;13.77;4.00;;;7.70;99.90;;;;;;4981689;28;20050;-77
2022/01/29 02:51:49;;;;;;;3.63;2.58;;;7.70;99.90;;;;;;4982493;28;20176;-77
2022/01/29 02:54:15;;;;;;;7.95;3.72;;;7.70;99.90;;;;;;4982702;28;20045;-77
2022/01/29 02:56:41;;;;;;;9.05;5.22;;;7.70;99.90;;;;;;4981962;28;20038;-77
2022/01/29 02:59:07;;;;;;;3.95;3.55;;;7.70;99.90;;;;;;4982128;28;20039;-77
2022/01/29 03:01:33;;;;;;;11.57;4.07;;;7.70;99.90;;;;;;4982048;28;20055;-78
2022/01/29 03:03:58;;;;;;;8.32;3.83;;;7.70;99.90;;;;;;4982188;28;20047;-77
2022/01/29 03:06:24;;;;;;;17.45;4.88;;;7.70;99.90;;;;;;4982354;28;20069;-77
2022/01/29 03:08:49;;;;;;;9.20;4.03;;;7.70;99.90;;;;;;4964671;28;20050;-77
2022/01/29 03:11:19;;;;;;;12.38;4.15;;;7.70;99.90;;;;;;4981185;28;20121;-78
2022/01/29 03:13:48;;;;;;;4.32;4.00;;;7.70;99.90;;;;;;4970809;28;20498;-77
2022/01/29 03:16:13;;;;;;;11.07;2.50;;;7.70;99.90;;;;;;4963381;28;20043;-78
2022/01/29 03:18:39;;;;;;;3.00;2.80;;;7.70;99.90;;;;;;4963419;28;20539;-77
2022/01/29 03:21:04;;;;;;;3.22;3.03;;;7.70;99.90;;;;;;4961916;28;20601;-77
2022/01/29 03:23:30;;;;;;;12.70;4.30;;;7.70;99.90;;;;;;4962945;28;20121;-77
2022/01/29 03:25:55;;;;;;;4.40;3.95;;;7.70;99.90;;;;;;4961445;28;20073;-78
2022/01/29 03:28:21;;;;;;;7.90;4.32;;;7.70;99.90;;;;;;4962379;28;20137;-77
2022/01/29 03:30:47;;;;;;;13.30;3.67;;;7.80;99.90;;;;;;4955720;28;20485;-77
2022/01/29 03:33:12;;;;;;;7.60;4.18;;;7.80;99.90;;;;;;4964689;28;20481;-78
2022/01/29 03:35:38;;;;;;;23.30;6.22;;;7.80;99.90;;;;;;4981508;28;20049;-77
2022/01/29 03:38:04;;;;;;;5.53;4.95;;;7.80;99.90;;;;;;4982004;28;20042;-77
2022/01/29 03:40:31;;;;;;;4.72;4.32;;;7.80;99.90;;;;;;4980304;28;20484;-78
2022/01/29 03:43:03;;;;;;;14.30;3.88;;;7.80;99.90;;;;;;4977825;28;20520;-78
2022/01/29 03:45:29;;;;;;;9.80;5.53;;;7.80;99.90;;;;;;4960453;28;20600;-78
2022/01/29 03:47:55;;;;;;;13.30;5.20;;;7.90;99.90;;;;;;4962534;28;20122;-77
2022/01/29 03:50:20;;;;;;;7.15;4.15;;;7.80;99.90;;;;;;4962211;28;20105;-77
2022/01/29 03:52:46;;;;;;;4.25;3.55;;;7.80;99.90;;;;;;4944714;28;20496;-78
2022/01/29 03:55:12;;;;;;;14.50;5.20;;;7.90;99.90;;;;;;4944705;28;20050;-77
2022/01/29 03:57:37;;;;;;;6.20;4.32;;;7.90;99.90;;;;;;4944882;28;20082;-77
2022/01/29 04:00:05;;;;;;;7.32;4.45;;;7.90;99.90;;;;;;4944424;28;20054;-78
2022/01/29 04:02:31;;;;;;;10.38;3.95;;;7.90;99.90;;;;;;4961996;28;20098;-78
2022/01/29 04:04:56;;;;;;;15.65;3.55;;;7.90;99.90;;;;;;4944323;28;20062;-78
2022/01/29 04:07:22;;;;;;;6.03;4.80;;;7.90;99.90;;;;;;4962225;28;20039;-77
2022/01/29 04:09:50;;;;;;;6.35;3.80;;;7.90;99.90;;;;;;4967003;28;20330;-77
2022/01/29 04:12:16;;;;;;;11.25;4.28;;;7.90;99.90;;;;;;4981054;28;20183;-77
2022/01/29 04:14:42;;;;;;;7.45;5.90;;;7.90;99.90;;;;;;4981720;28;20042;-77
2022/01/29 04:17:08;;;;;;;9.00;5.07;;;8.00;99.90;;;;;;4963487;28;20505;-77
2022/01/29 04:19:34;;;;;;;5.95;3.95;;;8.00;99.90;;;;;;4981489;28;20046;-77
2022/01/29 04:22:00;;;;;;;9.13;5.60;;;7.90;99.90;;;;;;4980617;28;20040;-77
2022/01/29 04:24:26;;;;;;;6.38;4.38;;;8.00;99.90;;;;;;4981415;28;20134;-78
2022/01/29 04:26:52;;;;;;;6.53;5.13;;;8.00;99.90;;;;;;4979828;28;20129;-77
2022/01/29 04:29:18;;;;;;;4.05;3.65;;;8.00;99.90;;;;;;4980896;28;20440;-78
2022/01/29 04:32:44;;;;;;;4.32;3.92;;;8.00;99.90;;;;;;4963034;28;20054;-77
2022/01/29 04:34:30;;;;;;;6.05;5.07;;;8.00;99.90;;;;;;4942382;28;20826;-77
2022/01/29 04:36:55;;;;;;;5.70;5.20;;;8.00;99.90;;;;;;4980611;28;20058;-78
2022/01/29 04:39:21;;;;;;;6.18;5.53;;;8.00;99.90;;;;;;4960391;28;20138;-77
2022/01/29 04:41:47;;;;;;;8.65;4.72;;;8.00;99.90;;;;;;4960562;28;20078;-78
2022/01/29 04:44:12;;;;;;;5.57;4.30;;;8.00;99.90;;;;;;4961832;28;20405;-77
2022/01/29 04:46:38;;;;;;;5.70;5.20;;;8.00;99.90;;;;;;4961629;28;20066;-78
2022/01/29 04:49:03;;;;;;;4.03;3.72;;;8.10;99.90;;;;;;4961269;28;20051;-78
2022/01/29 04:51:29;;;;;;;5.50;5.00;;;8.10;99.90;;;;;;4961489;28;20046;-78
2022/01/29 04:53:54;;;;;;;17.23;6.22;;;8.10;99.90;;;;;;4961174;28;20035;-78
2022/01/29 04:56:20;;;;;;;8.23;4.72;;;8.00;99.90;;;;;;4960733;28;20051;-78
2022/01/29 04:58:45;;;;;;;5.70;4.97;;;8.10;99.90;;;;;;4944619;28;20051;-78
2022/01/29 05:01:11;;;;;;;4.93;4.10;;;8.00;99.90;;;;;;4961530;28;20057;-77
2022/01/29 05:03:37;;;;;;;5.28;4.32;;;8.00;99.90;;;;;;4961510;28;20094;-78
2022/01/29 05:06:09;;;;;;;12.52;6.30;;;8.00;99.90;;;;;;4965616;28;20074;-78
2022/01/29 05:08:35;;;;;;;12.50;4.65;;;8.10;99.90;;;;;;4984775;28;20387;-77
2022/01/29 05:11:01;;;;;;;8.38;5.07;;;8.10;99.90;;;;;;4982906;28;20161;-77
2022/01/29 05:13:29;;;;;;;3.55;3.30;;;8.10;99.90;;;;;;4984375;28;20042;-77
2022/01/29 05:26:58;;;;;;;9.70;4.68;;;8.10;99.90;;;;;;4982965;28;20134;-77
2022/01/29 05:29:28;;;;;;;5.40;4.63;;;8.10;99.90;;;;;;4983991;28;20081;-78
2022/01/29 05:31:55;;;;;;;7.15;4.50;;;8.10;99.90;;;;;;4947018;28;20093;-78
2022/01/29 05:34:21;;;;;;;6.20;4.32;;;8.10;99.90;;;;;;4965685;28;20263;-78
2022/01/29 05:36:47;;;;;;;8.82;4.60;;;8.10;99.90;;;;;;4964986;28;20061;-78
2022/01/29 05:39:13;;;;;;;6.15;4.78;;;8.10;99.90;;;;;;4948043;28;20051;-78
2022/01/29 05:41:38;;;;;;;6.20;5.50;;;8.10;99.90;;;;;;4963218;28;20130;-77
2022/01/29 05:44:04;;;;;;;13.52;4.85;;;8.10;99.90;;;;;;4963906;28;20573;-77
2022/01/29 05:46:30;;;;;;;4.78;4.38;;;8.10;99.90;;;;;;4964862;28;20053;-77
2022/01/29 05:48:55;;;;;;;7.85;5.28;;;8.10;99.90;;;;;;4963970;28;20112;-78
2022/01/29 05:51:21;;;;;;;20.90;3.50;;;8.10;99.90;;;;;;4982472;28;20049;-77
2022/01/29 05:53:46;;;;;;;4.80;3.50;;;8.10;99.90;;;;;;4983641;28;20127;-78
2022/01/29 05:56:12;;;;;;;5.38;4.30;;;8.20;99.90;;;;;;4965024;28;20520;-77
2022/01/29 05:58:37;;;;;;;4.38;3.25;;;8.10;99.90;;;;;;4983895;28;20048;-77
2022/01/29 06:01:04;;;;;;;7.97;4.22;;;8.10;99.90;;;;;;4983277;28;20544;-77
2022/01/29 06:03:30;;;;;;;5.90;5.50;;;8.20;99.90;;;;;;4983217;28;20054;-77
2022/01/29 06:05:55;;;;;;;7.15;4.75;;;8.20;99.90;;;;;;4983504;28;20408;-77
2022/01/29 06:08:21;;;;;;;10.43;4.75;;;8.20;99.90;;;;;;4965669;28;20053;-77
2022/01/29 06:10:47;;;;;;;11.15;3.75;;;8.20;99.90;;;;;;4981356;28;20464;-77
2022/01/29 06:13:14;;;;;;;6.68;4.45;;;8.20;99.90;;;;;;4966545;28;20054;-77
2022/01/29 06:15:43;;;;;;;5.15;4.43;;;8.20;99.90;;;;;;4964775;28;20129;-77
2022/01/29 06:18:15;;;;;;;4.82;4.35;;;8.20;99.90;;;;;;4963059;28;20512;-78
2022/01/29 06:20:41;;;;;;;;;;;8.30;99.90;;;;;;4947734;28;20101;-77
2022/01/29 06:23:07;;;;;;;4.95;4.38;;;8.30;99.90;;;;;;4963285;28;20561;-78
2022/01/29 06:25:33;;;;;;;5.25;3.45;;;8.20;99.90;;;;;;4963493;28;20085;-77
2022/01/29 06:27:58;;;;;;;5.22;4.47;;;8.20;99.90;;;;;;4981058;28;20608;-77
2022/01/29 06:30:24;;;;;;;3.85;3.55;;;8.20;99.90;;;;;;4975074;28;20093;-77
2022/01/29 06:32:49;;;;;;;3.65;3.35;;;8.30;99.90;;;;;;4963455;28;20039;-78
2022/01/29 06:35:15;;;;;;;4.32;3.83;;;8.20;99.90;;;;;;4963403;28;20093;-78
2022/01/29 06:37:41;;;;;;;11.13;4.78;;;8.20;99.90;;;;;;4963825;28;20053;-77
2022/01/29 06:40:08;;;;;;;7.28;4.60;;;8.30;99.90;;;;;;4962641;28;20626;-78
2022/01/29 06:42:34;;;;;;;11.43;5.45;;;8.20;99.90;;;;;;4945703;28;20121;-78
2022/01/29 06:45:00;;;;;;;7.70;4.30;;;8.20;99.90;;;;;;4946072;28;20490;-78
2022/01/29 06:47:25;;;;;;;13.82;4.25;;;8.30;99.90;;;;;;4963962;28;20066;-78
2022/01/29 06:49:51;;;;;;;6.30;3.78;;;8.30;99.90;;;;;;4945682;28;20043;-78
2022/01/29 06:52:16;;;;;;;5.45;3.90;;;8.30;99.90;;;;;;4946296;28;20066;-78
2022/01/29 06:54:42;;;;;;;13.35;3.25;;;8.30;99.90;;;;;;4962410;28;20050;-78
2022/01/29 06:57:07;;;;;;;7.57;3.58;;;8.30;99.90;;;;;;4962981;28;20043;-78
2022/01/29 06:59:33;;;;;;;7.57;4.13;;;8.30;99.90;;;;;;4947085;28;20097;-77
2022/01/29 07:01:58;;;;;;;5.82;4.13;;;8.30;99.90;;;;;;4962077;28;20062;-78
2022/01/29 07:04:24;;;;;;;10.75;5.97;;;8.30;99.90;;;;;;4963185;28;20043;-78
2022/01/29 07:06:50;;;;;;;8.35;2.95;;;8.30;99.90;;;;;;4962926;28;20084;-78
2022/01/29 07:09:15;;;;;;;5.10;4.00;;;8.30;99.90;;;;;;4961616;28;20045;-78
2022/01/29 07:11:43;;;;;;;3.97;2.88;;;8.30;99.90;;;;;;4947027;28;20058;-78
2022/01/29 07:14:15;;;;;;;4.07;2.22;;;8.40;99.90;;;;;;4962170;28;20042;-78
2022/01/29 07:16:40;;;;;;;2.80;2.22;;;8.30;99.90;;;;;;4962288;28;20047;-78
2022/01/29 07:19:06;;;;;;;5.82;4.60;;;8.40;99.90;;;;;;4963391;28;20035;-78
2022/01/29 07:21:31;;;;;;;7.22;4.03;;;8.30;99.90;;;;;;4945411;28;20121;-78
2022/01/29 07:23:57;;;;;;;5.30;3.53;;;8.30;99.90;;;;;;4962315;28;20181;-78
2022/01/29 07:26:22;;;;;;;3.88;3.47;;;8.30;99.90;;;;;;4974264;28;20050;-78
2022/01/29 07:28:48;;;;;;;2.60;2.40;;;8.40;99.90;;;;;;4979706;28;20452;-78
2022/01/29 07:31:14;;;;;;;2.90;2.70;;;8.40;99.90;;;;;;4967443;28;20081;-78
2022/01/29 07:33:39;;;;;;;2.78;2.58;;;8.30;99.90;;;;;;4944833;28;20042;-78
2022/01/29 07:36:05;;;;;;;4.20;3.15;;;8.40;99.90;;;;;;4962669;28;20113;-78
2022/01/29 07:38:31;;;;;;;3.17;2.78;;;8.40;99.90;;;;;;4962178;28;20744;-78
2022/01/29 07:40:56;;;;;;;11.00;3.38;;;8.40;99.90;;;;;;4943995;28;20054;-78
2022/01/29 07:43:22;;;;;;;2.63;2.42;;;8.40;99.90;;;;;;4963221;28;20097;-78
2022/01/29 07:45:48;;;;;;;13.73;3.58;;;8.40;99.90;;;;;;4964958;28;20045;-78
2022/01/29 07:48:13;;;;;;;2.08;1.92;;;8.40;99.90;;;;;;4982097;28;20046;-78
2022/01/29 07:50:39;;;;;;;9.88;3.17;;;8.40;99.90;;;;;;4981275;28;20054;-78
2022/01/29 07:53:05;;;;;;;4.47;2.88;;;8.40;99.90;;;;;;4981134;28;20565;-78
2022/01/29 07:55:31;;;;;;;2.92;2.55;;;8.40;99.90;;;;;;4979356;28;20552;-78
2022/01/29 07:58:01;;;;;;;3.00;2.78;;;8.40;99.90;;;;;;4968851;28;20050;-78
2022/01/29 08:00:27;;;;;;;3.10;2.80;;;8.40;99.90;;;;;;4961032;28;20109;-78
2022/01/29 08:02:53;;;;;;;2.63;2.42;;;8.40;99.90;;;;;;4961496;28;20154;-78
2022/01/29 08:05:18;;;;;;;2.72;2.15;;;8.40;99.90;;;;;;4929458;28;20121;-78
2022/01/29 08:07:44;;;;;;;2.65;2.45;;;8.40;99.90;;;;;;4945293;28;20162;-78
2022/01/29 08:10:09;;;;;;;4.60;1.75;;;8.40;99.90;;;;;;4961414;28;20050;-78
2022/01/29 08:12:35;;;;;;;3.67;2.78;;;8.40;99.90;;;;;;4962285;28;20039;-78
2022/01/29 08:15:05;;;;;;;2.97;2.58;;;8.40;99.90;;;;;;4961438;28;20054;-78
2022/01/29 08:17:30;;;;;;;3.42;2.17;;;8.40;99.90;;;;;;4962014;28;20049;-78
2022/01/29 08:19:57;;;;;;;3.95;2.65;;;8.50;99.90;;;;;;4961366;28;20528;-78
2022/01/29 08:22:24;;;;;;;2.58;2.38;;;8.40;99.90;;;;;;4962750;28;20078;-78
2022/01/29 08:24:50;;;;;;;6.97;2.85;;;8.50;99.90;;;;;;4960103;28;20050;-78
2022/01/29 08:27:16;;;;;;;12.82;2.75;;;8.50;99.90;;;;;;4961468;28;20105;-78
2022/01/29 08:29:41;;;;;;;1.75;1.65;;;8.50;99.90;;;;;;4970775;28;20050;-78
2022/01/29 08:32:07;;;;;;;3.10;2.28;;;8.50;99.90;;;;;;4962115;28;20138;-78
2022/01/29 08:34:33;;;;;;;3.28;2.45;;;8.50;99.90;;;;;;4961245;28;20110;-78
2022/01/29 08:37:02;;;;;;;8.38;2.67;;;8.50;99.90;;;;;;4961552;28;20426;-78
2022/01/29 08:39:28;;;;;;;3.47;2.30;;;8.60;99.90;;;;;;4963499;28;20066;-78
2022/01/29 08:41:54;;;;;;;4.68;2.90;;;8.60;99.90;;;;;;4964788;28;20500;-79
2022/01/29 08:44:19;;;;;;;3.13;2.22;;;8.60;99.90;;;;;;4974601;28;20038;-77
2022/01/29 08:46:45;;;;;;;14.63;3.00;;;8.60;99.90;;;;;;4966534;28;20133;-78
2022/01/29 08:49:10;;;;;;;3.10;1.75;;;8.60;99.90;;;;;;4967358;28;20043;-79
2022/01/29 08:51:36;;;;;;;4.30;1.65;;;8.60;99.90;;;;;;4982551;28;20065;-79
2022/01/29 08:54:02;;;;;;;9.68;2.17;;;8.70;99.90;;;;;;4983393;28;20310;-78
2022/01/29 08:56:28;;;;;;;3.38;1.85;;;8.70;99.90;;;;;;4971814;28;20046;-79
2022/01/29 08:58:53;;;;;;;2.05;1.65;;;8.70;99.90;;;;;;4964753;28;20779;-78
2022/01/29 09:01:19;;;;;;;13.68;1.73;;;8.70;99.90;;;;;;4964700;28;20063;-78
2022/01/29 09:03:45;;;;;;;7.63;2.55;;;8.70;99.90;;;;;;4964905;28;20093;-78
2022/01/29 09:06:10;;;;;;;1.85;1.65;;;8.70;99.90;;;;;;4979865;28;20047;-79
2022/01/29 09:08:38;;;;;;;2.70;2.22;;;8.80;99.90;;;;;;4977631;28;20043;-79
2022/01/29 09:11:04;;;;;;;1.27;1.23;;;8.80;99.90;;;;;;4983697;28;20049;-78
2022/01/29 09:13:29;;;;;;;0.75;0.75;;;8.80;99.90;;;;;;4966386;28;20433;-80
2022/01/29 09:15:56;;;;;;;5.05;2.17;;;8.80;99.90;;;;;;4966939;28;20493;-79
2022/01/29 09:18:21;;;;;;;8.57;2.03;;;8.80;99.90;;;;;;4967505;28;20066;-79
2022/01/29 09:20:47;;;;;;;3.28;1.98;;;8.80;99.90;;;;;;4983692;28;20042;-79
2022/01/29 09:23:13;;;;;;;1.25;1.15;;;8.80;99.90;;;;;;4984657;28;20122;-79
2022/01/29 09:25:39;;;;;;;1.95;1.85;;;8.90;99.90;;;;;;4952774;28;20098;-80
2022/01/29 09:28:07;;;;;;;1.35;1.25;;;8.90;99.90;;;;;;4972310;28;20038;-80
2022/01/29 09:30:33;;;;;;;1.20;1.15;;;8.90;99.90;;;;;;4955208;28;20131;-79
2022/01/29 09:32:59;;;;;;;1.98;1.52;;;8.90;99.90;;;;;;4971541;28;20066;-79
2022/01/29 09:35:26;;;;;;;3.63;1.38;;;8.90;99.90;;;;;;4973441;28;20042;-79
2022/01/29 09:37:53;;;;;;;0.88;0.88;;;8.90;99.90;;;;;;4973661;28;20054;-80
2022/01/29 09:40:19;;;;;;;1.40;1.27;;;8.90;99.90;;;;;;4973274;28;20034;-80
2022/01/29 09:42:47;;;;;;;4.85;1.70;;;8.90;99.90;;;;;;4955970;28;20050;-79
2022/01/29 09:45:14;;;;;;;10.15;1.90;;;8.90;99.90;;;;;;4964944;28;20055;-79
2022/01/29 09:47:42;;;;;;;0.95;0.93;;;9.00;99.90;;;;;;4975430;28;20034;-79
2022/01/29 09:50:09;;;;;;;1.65;0.73;;;9.00;99.90;;;;;;4956675;28;20058;-79
2022/01/29 09:52:34;;;;;;;1.98;1.83;;;8.90;99.90;;;;;;4965009;28;20051;-78
2022/01/29 09:55:00;;;;;;;1.33;1.13;;;9.00;99.90;;;;;;4971277;28;20030;-79
2022/01/29 09:57:26;;;;;;;1.65;1.05;;;9.00;99.90;;;;;;4951140;28;20058;-79
2022/01/29 09:59:52;;;;;;;9.20;1.13;;;9.00;99.90;;;;;;4981152;28;20050;-79
2022/01/29 10:02:19;;;;;;;1.80;1.67;;;9.00;99.90;;;;;;4966313;28;20046;-79
2022/01/29 10:04:53;;;;;;;0.90;0.90;;;9.10;99.90;;;;;;4964625;28;20133;-79
2022/01/29 10:07:27;;;;;;;1.10;0.95;;;9.10;99.90;;;;;;4964117;28;20035;-79
2022/01/29 10:09:53;;;;;;;4.70;1.15;;;9.10;99.90;;;;;;4962965;28;20068;-79
2022/01/29 10:12:27;;;;;;;2.42;1.42;;;9.10;99.90;;;;;;4974211;28;20042;-79
2022/01/29 10:14:55;;;;;;;0.70;0.70;;;9.10;99.90;;;;;;4963657;28;20078;-79
2022/01/29 10:17:39;;;;;;;6.32;1.58;;;9.10;99.90;;;;;;4963927;28;20430;-79
2022/01/29 10:20:15;;;;;;;1.00;1.00;;;9.20;99.90;;;;;;4964017;28;20138;-79
2022/01/29 10:22:44;;;;;;;0.73;0.60;;;9.20;99.90;;;;;;4947229;28;20409;-79
2022/01/29 10:25:13;;;;;;;0.98;0.95;;;9.20;99.90;;;;;;4962262;28;20449;-80
2022/01/29 10:27:39;;;;;;;4.88;0.95;;;9.30;99.90;;;;;;4946356;28;20049;-80
2022/01/29 10:30:09;;;;;;;0.57;0.57;;;9.30;99.90;;;;;;4968872;28;20140;-78
2022/01/29 10:32:35;;;;;;;2.28;1.73;;;9.30;99.90;;;;;;4983481;28;20350;-79
2022/01/29 10:35:02;;;;;;;12.52;1.30;;;9.30;99.90;;;;;;4979668;28;20568;-79
2022/01/29 10:37:29;;;;;;;0.80;0.80;;;9.30;99.90;;;;;;4971529;28;20140;-79
2022/01/29 10:39:57;;;;;;;4.40;1.48;;;9.40;99.90;;;;;;4953995;28;20046;-79
2022/01/29 10:42:30;;;;;;;1.45;1.20;;;9.40;99.90;;;;;;4971945;28;20046;-78
2022/01/29 10:45:01;;;;;;;6.70;0.80;;;9.40;99.90;;;;;;4970722;28;20042;-79
2022/01/29 10:47:27;;;;;;;1.35;0.95;;;9.40;99.90;;;;;;4971713;28;20058;-78
2022/01/29 10:50:05;;;;;;;1.65;1.20;;;9.40;99.90;;;;;;4972851;28;20050;-79
2022/01/29 10:52:33;;;;;;;1.15;0.85;;;9.40;99.90;;;;;;4957549;28;20042;-79
2022/01/29 10:55:04;;;;;;;2.58;0.77;;;9.40;99.90;;;;;;4976527;28;20035;-79
2022/01/29 10:57:37;;;;;;;1.42;0.82;;;9.40;99.90;;;;;;4965274;28;20101;-79
2022/01/29 11:00:09;;;;;;;2.03;1.83;;;9.40;99.90;;;;;;4956373;28;20113;-81
2022/01/29 11:02:34;;;;;;;7.65;1.33;;;9.40;99.90;;;;;;4970074;28;20306;-79
2022/01/29 11:05:02;;;;;;;2.92;2.70;;;9.40;99.90;;;;;;4945326;28;20391;-83
2022/01/29 11:07:30;;;;;;;2.60;1.13;;;9.40;99.90;;;;;;4960254;28;20050;-79
2022/01/29 11:09:56;;;;;;;6.35;1.35;;;9.40;99.90;;;;;;4965669;28;20042;-77
2022/01/29 11:12:27;;;;;;;4.38;1.05;;;9.40;99.90;;;;;;4974228;28;20062;-78
2022/01/29 11:15:00;;;;;;;7.35;1.90;;;9.40;99.90;;;;;;4969616;28;20035;-78
2022/01/29 11:17:28;;;;;;;16.50;1.58;;;9.40;99.90;;;;;;4968200;28;20058;-77
2022/01/29 11:19:53;;;;;;;10.60;1.50;;;9.50;99.90;;;;;;4962836;28;20284;-78
2022/01/29 11:22:24;;;;;;;1.25;0.60;;;9.50;99.90;;;;;;4963885;28;20497;-78
2022/01/29 11:25:01;;;;;;;1.52;1.23;;;9.50;99.90;;;;;;5045274;28;20408;-76
2022/01/29 11:27:31;;;;;;;3.08;1.08;;;9.60;99.90;;;;;;5037839;28;20414;-76
2022/01/29 11:30:10;;;;;;;1.02;1.02;;;9.60;99.90;;;;;;5037999;28;20033;-76
2022/01/29 11:32:39;;;;;;;1.65;1.08;;;9.60;99.90;;;;;;5038004;28;20037;-75
2022/01/29 11:35:28;;;;;;;0.50;0.40;;;9.60;99.90;;;;;;5037328;28;20080;-76
2022/01/29 11:37:59;;;;;;;10.52;0.77;;;9.60;99.90;;;;;;5033171;28;20117;-76
2022/01/29 11:40:28;;;;;;;3.15;0.65;;;9.60;99.90;;;;;;5035049;28;20033;-77
2022/01/29 11:43:08;;;;;;;3.33;1.40;;;9.60;99.90;;;;;;5031461;28;20041;-77
2022/01/29 11:45:43;;;;;;;6.63;1.83;;;9.60;99.90;;;;;;5038140;28;20041;-78
2022/01/29 11:48:30;;;;;;;5.05;1.02;;;9.60;99.90;;;;;;5027212;28;20034;-78
2022/01/29 11:51:10;;;;;;;5.80;1.75;;;9.60;99.90;;;;;;5018514;28;20629;-80
2022/01/29 11:53:48;;;;;;;1.17;0.80;;;9.70;99.90;;;;;;5035635;28;20542;-78
2022/01/29 11:56:41;;;;;;;1.10;0.93;;;9.70;99.90;;;;;;5032719;28;20124;-78
2022/01/29 11:59:26;;;;;;;0.43;0.43;;;9.70;99.90;;;;;;5031908;28;20129;-77
2022/01/29 12:01:58;;;;;;;1.73;1.13;;;9.70;99.90;;;;;;5015580;28;20049;-78
2022/01/29 12:04:58;;;;;;;3.25;1.45;;;9.70;99.90;;;;;;5035083;28;20080;-78
2022/01/29 12:07:32;;;;;;;2.35;1.10;;;9.70;99.90;;;;;;5028268;28;20056;-80
2022/01/29 12:10:12;;;;;;;0.63;0.45;;;9.60;99.90;;;;;;5035033;28;20053;-79
2022/01/29 12:12:42;;;;;;;0.85;0.40;;;9.70;99.90;;;;;;5015894;28;20100;-79
2022/01/29 12:15:11;;;;;;;4.63;1.00;;;9.70;99.90;;;;;;5029731;28;20045;-79
2022/01/29 12:17:50;;;;;;;5.10;1.10;;;9.70;99.90;;;;;;5035878;28;20049;-79
2022/01/29 12:20:22;;;;;;;1.88;0.50;;;9.70;99.90;;;;;;5034710;28;20103;-79
2022/01/29 12:22:49;;;;;;;1.90;1.17;;;9.70;99.90;;;;;;5026269;28;20506;-79
2022/01/29 12:25:17;;;;;;;1.00;0.82;;;9.70;99.90;;;;;;5033957;28;20095;-79
2022/01/29 12:27:55;;;;;;;4.47;1.48;;;9.80;99.90;;;;;;5032353;28;20041;-79
2022/01/29 12:30:35;;;;;;;11.75;0.93;;;9.80;99.90;;;;;;5017571;28;20792;-79
2022/01/29 12:33:21;;;;;;;0.63;0.63;;;9.80;99.90;;;;;;5033605;28;20883;-79
2022/01/29 12:35:58;;;;;;;9.43;1.33;;;9.80;99.90;;;;;;5023035;28;20080;-80
2022/01/29 12:38:29;;;;;;;0.40;0.40;;;9.80;99.90;;;;;;5001343;28;20054;-81
2022/01/29 12:41:09;;;;;;;22.50;1.00;;;9.80;99.90;;;;;;5010800;28;20041;-80
2022/01/29 12:44:02;;;;;;;10.90;1.38;;;9.80;99.90;;;;;;5022875;28;20053;-79
2022/01/29 12:46:29;;;;;;;0.57;0.57;;;9.80;99.90;;;;;;5017431;28;20048;-79
2022/01/29 12:49:02;;;;;;;1.45;1.08;;;9.80;99.90;;;;;;5023446;28;20052;-79
2022/01/29 12:51:28;;;;;;;0.43;0.43;;;9.80;99.90;;;;;;5014349;28;20082;-80
2022/01/29 12:54:02;;;;;;;1.10;1.10;;;9.80;99.90;;;;;;5000780;28;20060;-79
2022/01/29 12:56:31;;;;;;;0.93;0.60;;;9.80;99.90;;;;;;5003306;28;20053;-79
2022/01/29 12:58:58;;;;;;;0.45;0.45;;;9.80;99.90;;;;;;5000416;28;20049;-79
2022/01/29 13:01:25;;;;;;;0.52;0.50;;;9.80;99.90;;;;;;5007170;28;20029;-80
2022/01/29 13:04:03;;;;;;;4.10;0.90;;;9.80;99.90;;;;;;5011287;23;20061;-83
2022/01/29 13:06:29;;;;;;;1.17;1.00;;;9.80;99.90;;;;;;4966322;28;20054;-84
2022/01/29 13:09:21;;;;;;;2.40;1.15;;;9.80;99.90;;;;;;4965217;28;20263;-84